createdAt,value
2023-03-28T00:04:17.750Z,2510.66667
2023-03-28T00:09:19.281Z,2068.13793
2023-03-28T00:14:20.735Z,1810.66667
2023-03-28T00:19:22.216Z,2144
2023-03-28T00:24:23.793Z,2068.13793
2023-03-28T00:29:25.181Z,1997.33333
2023-03-28T00:34:26.671Z,2068.13793
2023-03-28T00:39:28.022Z,2068.13793
2023-03-28T00:44:29.408Z,2225.48148
2023-03-28T00:49:31.000Z,2144
2023-03-28T00:54:32.412Z,2144
2023-03-28T00:59:33.861Z,1869
2023-03-28T01:04:35.333Z,1755.76471
2023-03-28T01:09:36.753Z,1254.6383
2023-03-28T01:14:38.220Z,1227.33333
2023-03-28T01:19:39.752Z,1227.33333
2023-03-28T01:24:41.168Z,1128.61538
2023-03-28T01:29:42.809Z,0
2023-03-28T01:34:44.441Z,0
2023-03-28T01:39:45.909Z,953.83607
2023-03-28T01:44:47.329Z,1106.26415
2023-03-28T01:49:48.769Z,0
2023-03-28T01:54:50.186Z,921.77778
2023-03-28T01:59:51.856Z,1024.70175
2023-03-28T02:04:53.509Z,0
2023-03-28T02:09:58.727Z,0
2023-03-28T02:15:00.255Z,1024.70175
2023-03-28T02:20:01.644Z,877.33333
2023-03-28T02:25:03.073Z,953.83607
2023-03-28T02:30:04.506Z,1044
2023-03-28T02:35:05.952Z,1044
2023-03-28T02:40:07.470Z,891.69231
2023-03-28T02:45:08.982Z,953.83607
2023-03-28T02:50:10.600Z,1024.70175
2023-03-28T02:55:12.025Z,1064
2023-03-28T03:00:13.413Z,970.66667
2023-03-28T03:05:14.817Z,937.54839
2023-03-28T03:10:16.294Z,953.83607
2023-03-28T03:15:17.715Z,1024.70175
2023-03-28T03:20:19.085Z,1106.26415
2023-03-28T03:25:20.537Z,1044
2023-03-28T03:30:21.966Z,953.83607
2023-03-28T03:35:23.643Z,877.33333
2023-03-28T03:40:25.299Z,921.77778
2023-03-28T03:45:26.773Z,988.0678
2023-03-28T03:50:28.209Z,988.0678
2023-03-28T03:55:29.774Z,937.54839
2023-03-28T04:00:31.244Z,863.40299
2023-03-28T04:05:32.652Z,824
2023-03-28T04:10:34.143Z,863.40299
2023-03-28T04:15:35.695Z,849.88235
2023-03-28T04:20:37.154Z,891.69231
2023-03-28T04:25:38.731Z,921.77778
2023-03-28T04:30:40.161Z,970.66667
2023-03-28T04:35:41.683Z,937.54839
2023-03-28T04:40:43.089Z,906.5
2023-03-28T04:45:44.560Z,863.40299
2023-03-28T04:50:46.042Z,877.33333
2023-03-28T04:55:47.505Z,863.40299
2023-03-28T05:00:49.136Z,891.69231
2023-03-28T05:05:50.518Z,776.43243
2023-03-28T05:10:51.923Z,787.83562
2023-03-28T05:15:53.465Z,765.33333
2023-03-28T05:20:54.979Z,811.60563
2023-03-28T05:25:56.356Z,891.69231
2023-03-28T05:30:58.078Z,877.33333
2023-03-28T05:35:59.771Z,906.5
2023-03-28T05:41:01.903Z,1006.06897
2023-03-28T05:46:03.792Z,1106.26415
2023-03-28T05:51:05.335Z,1044
2023-03-28T05:56:06.713Z,1044
2023-03-28T06:01:08.145Z,1006.06897
2023-03-28T06:06:09.540Z,1024.70175
2023-03-28T06:11:11.092Z,1128.61538
2023-03-28T06:16:12.499Z,1176
2023-03-28T06:21:13.977Z,1128.61538
2023-03-28T06:26:15.516Z,1176
2023-03-28T06:31:17.069Z,1201.14286
2023-03-28T06:36:18.510Z,1084.74074
2023-03-28T06:41:19.978Z,1064
2023-03-28T06:46:21.415Z,1084.74074
2023-03-28T06:51:22.890Z,1064
2023-03-28T06:56:24.400Z,1084.74074
2023-03-28T07:01:25.961Z,1084.74074
2023-03-28T07:06:27.853Z,1044
2023-03-28T07:11:29.250Z,1044
2023-03-28T07:16:30.760Z,1044
2023-03-28T07:21:32.192Z,1064
2023-03-28T07:26:33.610Z,1006.06897
2023-03-28T07:31:35.209Z,988.0678
2023-03-28T07:36:36.686Z,1024.70175
2023-03-28T07:41:38.180Z,1006.06897
2023-03-28T07:46:39.678Z,988.0678
2023-03-28T07:51:41.092Z,1006.06897
2023-03-28T07:56:42.570Z,1006.06897
2023-03-28T08:01:44.025Z,1006.06897
2023-03-28T08:06:45.514Z,988.0678
2023-03-28T08:11:47.064Z,953.83607
2023-03-28T08:16:48.512Z,1006.06897
2023-03-28T08:21:50.088Z,1006.06897
2023-03-28T08:26:51.492Z,1006.06897
2023-03-28T08:31:53.242Z,1006.06897
2023-03-28T08:36:55.075Z,1006.06897
2023-03-28T08:41:56.472Z,988.0678
2023-03-28T08:46:57.873Z,970.66667
2023-03-28T08:51:59.316Z,1024.70175
2023-03-28T08:57:00.793Z,1064
2023-03-28T09:02:02.323Z,1044
2023-03-28T09:07:03.846Z,1006.06897
2023-03-28T09:12:05.269Z,1024.70175
2023-03-28T09:17:06.786Z,1064
2023-03-28T09:22:15.274Z,1044
2023-03-28T09:27:17.855Z,1151.84314
2023-03-28T09:32:19.355Z,1128.61538
2023-03-28T09:37:20.819Z,1128.61538
2023-03-28T09:42:22.212Z,1128.61538
2023-03-28T09:47:23.709Z,1176
2023-03-28T09:52:25.146Z,1176
2023-03-28T09:57:26.592Z,1176
2023-03-28T10:02:28.130Z,1201.14286
2023-03-28T10:07:29.537Z,1106.26415
2023-03-28T10:12:30.931Z,1106.26415
2023-03-28T10:17:33.688Z,1128.61538
2023-03-28T10:22:36.997Z,1106.26415
2023-03-28T10:27:38.420Z,1064
2023-03-28T10:32:39.897Z,1064
2023-03-28T10:37:41.408Z,1064
2023-03-28T10:42:42.834Z,1044
2023-03-28T10:47:44.310Z,1024.70175
2023-03-28T10:52:45.746Z,1006.06897
2023-03-28T10:57:47.271Z,1044
2023-03-28T11:02:48.934Z,1006.06897
2023-03-28T11:07:50.532Z,1044
2023-03-28T11:12:55.588Z,1084.74074
2023-03-28T11:17:58.307Z,1084.74074
2023-03-28T11:23:06.443Z,1044
2023-03-28T11:28:08.410Z,1044
2023-03-28T11:33:09.842Z,1006.06897
2023-03-28T11:38:11.249Z,988.0678
2023-03-28T11:43:12.897Z,1006.06897
2023-03-28T11:48:14.344Z,988.0678
2023-03-28T11:53:15.751Z,1024.70175
2023-03-28T11:58:17.208Z,1024.70175
2023-03-28T12:03:18.696Z,1006.06897
2023-03-28T12:08:20.233Z,988.0678
2023-03-28T12:13:21.881Z,906.5
2023-03-28T12:18:23.257Z,937.54839
2023-03-28T12:23:24.773Z,937.54839
2023-03-28T12:28:26.437Z,824
2023-03-28T12:33:28.045Z,799.55556
2023-03-28T12:38:29.450Z,765.33333
2023-03-28T12:43:30.883Z,863.40299
2023-03-28T12:48:32.299Z,849.88235
2023-03-28T12:53:33.717Z,765.33333
2023-03-28T12:58:35.120Z,744
2023-03-28T13:03:36.624Z,754.52632
2023-03-28T13:08:38.033Z,765.33333
2023-03-28T13:13:39.455Z,723.74684
2023-03-28T13:18:40.988Z,723.74684
2023-03-28T13:23:42.368Z,714
2023-03-28T13:28:43.749Z,723.74684
2023-03-28T13:33:45.177Z,744
2023-03-28T13:38:46.643Z,824
2023-03-28T13:43:48.017Z,811.60563
2023-03-28T13:48:49.444Z,714
2023-03-28T13:53:50.838Z,714
2023-03-28T13:58:52.208Z,704.49383
2023-03-28T14:03:53.827Z,695.21951
2023-03-28T14:08:55.323Z,714
2023-03-28T14:13:56.765Z,714
2023-03-28T14:18:58.347Z,723.74684
2023-03-28T14:23:59.762Z,714
2023-03-28T14:29:01.216Z,686.16867
2023-03-28T14:34:02.706Z,668.70588
2023-03-28T14:39:04.169Z,644
2023-03-28T14:44:05.582Z,628.44444
2023-03-28T14:49:07.022Z,636.13483
2023-03-28T14:54:08.629Z,620.92308
2023-03-28T14:59:10.033Z,677.33333
2023-03-28T15:04:11.769Z,744
2023-03-28T15:09:13.184Z,787.83562
2023-03-28T15:14:14.667Z,836.75362
2023-03-28T15:19:16.153Z,891.69231
2023-03-28T15:24:17.550Z,906.5
2023-03-28T15:29:18.992Z,906.5
2023-03-28T15:34:20.373Z,937.54839
2023-03-28T15:39:21.762Z,953.83607
2023-03-28T15:44:23.178Z,953.83607
2023-03-28T15:49:24.573Z,953.83607
2023-03-28T15:54:31.249Z,1006.06897
2023-03-28T15:59:33.407Z,1084.74074
2023-03-28T16:04:34.832Z,1128.61538
2023-03-28T16:09:36.266Z,0
2023-03-28T16:14:37.673Z,0
2023-03-28T16:19:39.146Z,0
2023-03-28T16:24:40.612Z,0
2023-03-28T16:29:42.016Z,0
2023-03-28T16:34:43.509Z,0
2023-03-28T16:39:44.975Z,0
2023-03-28T16:44:46.387Z,0
2023-03-28T16:49:47.852Z,0
2023-03-28T16:54:49.265Z,0
2023-03-28T16:59:50.700Z,0
2023-03-28T17:04:52.103Z,0
2023-03-28T17:09:53.555Z,1283.13043
2023-03-28T17:14:55.040Z,0
2023-03-28T17:19:56.541Z,0
2023-03-28T17:24:57.959Z,0
2023-03-28T17:29:59.517Z,891.69231
2023-03-28T17:35:01.154Z,811.60563
2023-03-28T17:40:02.629Z,836.75362
2023-03-28T17:45:04.120Z,0
2023-03-28T17:50:05.547Z,0
2023-03-28T17:55:06.953Z,1201.14286
2023-03-28T18:00:08.393Z,1106.26415
2023-03-28T18:05:09.974Z,1227.33333
2023-03-28T18:10:11.413Z,1201.14286
2023-03-28T18:15:12.853Z,1151.84314
2023-03-28T18:20:14.445Z,1254.6383
2023-03-28T18:25:15.821Z,1254.6383
2023-03-28T18:30:17.303Z,1084.74074
2023-03-28T18:35:18.685Z,1044
2023-03-28T18:40:20.118Z,0
2023-03-28T18:45:21.572Z,1106.26415
2023-03-28T18:50:22.973Z,1084.74074
2023-03-28T18:55:24.480Z,0
2023-03-28T19:00:25.894Z,970.66667
2023-03-28T19:05:27.449Z,1024.70175
2023-03-28T19:10:28.850Z,1064
2023-03-28T19:15:30.346Z,1151.84314
2023-03-28T19:20:31.790Z,1084.74074
2023-03-28T19:25:33.224Z,0
2023-03-28T19:30:34.745Z,0
2023-03-28T19:35:36.205Z,0
2023-03-28T19:40:37.692Z,1024.70175
2023-03-28T19:45:39.318Z,1128.61538
2023-03-28T19:50:40.743Z,1024.70175
2023-03-28T19:55:42.247Z,0
2023-03-28T20:00:43.645Z,921.77778
2023-03-28T20:05:45.062Z,1024.70175
2023-03-28T20:10:46.664Z,1044
2023-03-28T20:15:48.061Z,0
2023-03-28T20:20:49.535Z,877.33333
2023-03-28T20:25:50.925Z,733.74359
2023-03-28T20:30:52.315Z,877.33333
2023-03-28T20:35:53.858Z,787.83562
2023-03-28T20:40:55.473Z,1006.06897
2023-03-28T20:45:57.112Z,0
2023-03-28T20:50:58.652Z,921.77778
2023-03-28T20:56:00.175Z,891.69231
2023-03-28T21:01:01.942Z,1151.84314
2023-03-28T21:06:03.581Z,1006.06897
2023-03-28T21:11:04.988Z,1106.26415
2023-03-28T21:16:06.437Z,1106.26415
2023-03-28T21:21:07.986Z,1410.66667
2023-03-28T21:26:09.401Z,1376.55814
2023-03-28T21:31:10.832Z,1523.48718
2023-03-28T21:36:12.246Z,1565.05263
2023-03-28T21:41:13.740Z,1410.66667
2023-03-28T21:46:15.195Z,1227.33333
2023-03-28T21:51:16.727Z,1128.61538
2023-03-28T21:56:18.146Z,1523.48718
2023-03-28T22:01:19.586Z,1410.66667
2023-03-28T22:06:21.013Z,1523.48718
2023-03-28T22:11:22.408Z,1410.66667
2023-03-28T22:16:23.836Z,1608.86486
2023-03-28T22:21:25.305Z,1931.09677
2023-03-28T22:26:26.692Z,1931.09677
2023-03-28T22:31:28.108Z,1810.66667
2023-03-28T22:36:29.712Z,2068.13793
2023-03-28T22:41:31.364Z,2225.48148
2023-03-28T22:46:32.930Z,1755.76471
2023-03-28T22:51:34.348Z,2144
2023-03-28T22:56:35.764Z,2225.48148
2023-03-28T23:01:37.263Z,1869
2023-03-28T23:06:38.792Z,1655.11111
2023-03-28T23:11:40.224Z,1704
2023-03-28T23:16:42.037Z,1655.11111
2023-03-28T23:21:43.506Z,1810.66667
2023-03-28T23:26:44.935Z,1704
2023-03-28T23:31:46.446Z,1755.76471
2023-03-28T23:36:47.926Z,1997.33333
2023-03-28T23:41:49.357Z,2068.13793
2023-03-28T23:46:50.799Z,1997.33333
2023-03-28T23:51:52.210Z,2144
2023-03-28T23:56:53.669Z,2144
